sensor_id;sensor_type;location;lat;lon;timestamp;P1;durP1;ratioP1;P2;durP2;ratioP2
9322;SDS011;4700;48.822;9.270;2023-04-03T00:03:58;117.95;;;84.50;;
9322;SDS011;4700;48.822;9.270;2023-04-03T00:06:44;134.07;;;114.55;;
9322;SDS011;4700;48.822;9.270;2023-04-03T00:09:33;130.00;;;117.93;;
9322;SDS011;4700;48.822;9.270;2023-04-03T00:14:54;160.60;;;149.53;;
9322;SDS011;4700;48.822;9.270;2023-04-03T00:17:40;142.02;;;131.82;;
9322;SDS011;4700;48.822;9.270;2023-04-03T00:20:27;154.43;;;143.97;;
9322;SDS011;4700;48.822;9.270;2023-04-03T00:28:23;113.07;;;104.82;;
9322;SDS011;4700;48.822;9.270;2023-04-03T00:31:13;138.67;;;129.37;;
9322;SDS011;4700;48.822;9.270;2023-04-03T00:34:00;154.82;;;145.32;;
9322;SDS011;4700;48.822;9.270;2023-04-03T00:36:46;167.37;;;157.03;;
9322;SDS011;4700;48.822;9.270;2023-04-03T00:39:34;148.07;;;137.90;;
9322;SDS011;4700;48.822;9.270;2023-04-03T00:42:19;156.97;;;147.07;;
9322;SDS011;4700;48.822;9.270;2023-04-03T00:52:58;153.00;;;143.37;;
9322;SDS011;4700;48.822;9.270;2023-04-03T00:55:53;129.52;;;119.40;;
9322;SDS011;4700;48.822;9.270;2023-04-03T00:58:42;92.20;;;82.70;;
9322;SDS011;4700;48.822;9.270;2023-04-03T01:01:32;92.50;;;66.10;;
9322;SDS011;4700;48.822;9.270;2023-04-03T01:09:21;101.47;;;83.97;;
9322;SDS011;4700;48.822;9.270;2023-04-03T01:14:42;112.82;;;100.13;;
9322;SDS011;4700;48.822;9.270;2023-04-03T01:17:29;110.93;;;89.53;;
9322;SDS011;4700;48.822;9.270;2023-04-03T01:20:31;121.35;;;110.07;;
9322;SDS011;4700;48.822;9.270;2023-04-03T01:23:54;117.20;;;84.60;;
9322;SDS011;4700;48.822;9.270;2023-04-03T01:26:50;114.50;;;86.88;;
9322;SDS011;4700;48.822;9.270;2023-04-03T01:47:35;138.02;;;129.25;;
9322;SDS011;4700;48.822;9.270;2023-04-03T01:55:22;141.13;;;129.27;;
9322;SDS011;4700;48.822;9.270;2023-04-03T02:11:00;96.85;;;79.68;;
9322;SDS011;4700;48.822;9.270;2023-04-03T02:23:57;97.13;;;70.90;;
9322;SDS011;4700;48.822;9.270;2023-04-03T02:26:44;100.22;;;71.38;;
9322;SDS011;4700;48.822;9.270;2023-04-03T02:32:00;104.82;;;83.70;;
9322;SDS011;4700;48.822;9.270;2023-04-03T02:47:23;119.07;;;105.13;;
9322;SDS011;4700;48.822;9.270;2023-04-03T03:00:26;114.00;;;103.32;;
9322;SDS011;4700;48.822;9.270;2023-04-03T03:03:13;94.20;;;84.72;;
9322;SDS011;4700;48.822;9.270;2023-04-03T03:08:30;94.55;;;66.22;;
9322;SDS011;4700;48.822;9.270;2023-04-03T03:16:24;119.28;;;102.13;;
9322;SDS011;4700;48.822;9.270;2023-04-03T03:34:34;102.63;;;68.82;;
9322;SDS011;4700;48.822;9.270;2023-04-03T03:37:22;118.20;;;72.43;;
9322;SDS011;4700;48.822;9.270;2023-04-03T03:40:09;111.47;;;67.22;;
9322;SDS011;4700;48.822;9.270;2023-04-03T03:42:56;117.93;;;69.40;;
9322;SDS011;4700;48.822;9.270;2023-04-03T03:45:42;120.43;;;66.90;;
9322;SDS011;4700;48.822;9.270;2023-04-03T03:48:29;112.47;;;65.15;;
9322;SDS011;4700;48.822;9.270;2023-04-03T04:12:40;109.97;;;73.30;;
9322;SDS011;4700;48.822;9.270;2023-04-03T04:15:26;110.00;;;73.88;;
9322;SDS011;4700;48.822;9.270;2023-04-03T04:18:12;105.27;;;68.67;;
9322;SDS011;4700;48.822;9.270;2023-04-03T04:20:59;109.75;;;71.95;;
9322;SDS011;4700;48.822;9.270;2023-04-03T04:26:20;100.55;;;73.70;;
9322;SDS011;4700;48.822;9.270;2023-04-03T04:31:39;101.80;;;81.93;;
9322;SDS011;4700;48.822;9.270;2023-04-03T04:34:25;105.77;;;80.57;;
9322;SDS011;4700;48.822;9.270;2023-04-03T04:37:12;100.80;;;84.53;;
9322;SDS011;4700;48.822;9.270;2023-04-03T04:39:58;99.35;;;82.53;;
9322;SDS011;4700;48.822;9.270;2023-04-03T04:42:44;102.97;;;87.20;;
9322;SDS011;4700;48.822;9.270;2023-04-03T04:45:33;94.15;;;81.13;;
9322;SDS011;4700;48.822;9.270;2023-04-03T04:48:19;97.87;;;83.43;;
9322;SDS011;4700;48.822;9.270;2023-04-03T04:51:05;97.88;;;85.40;;
9322;SDS011;4700;48.822;9.270;2023-04-03T04:53:52;113.07;;;83.30;;
9322;SDS011;4700;48.822;9.270;2023-04-03T04:56:38;102.90;;;81.27;;
9322;SDS011;4700;48.822;9.270;2023-04-03T04:59:24;101.07;;;86.43;;
9322;SDS011;4700;48.822;9.270;2023-04-03T05:02:10;112.10;;;87.70;;
9322;SDS011;4700;48.822;9.270;2023-04-03T05:04:56;116.97;;;99.87;;
9322;SDS011;4700;48.822;9.270;2023-04-03T05:07:42;117.83;;;104.57;;
9322;SDS011;4700;48.822;9.270;2023-04-03T05:10:29;159.17;;;148.00;;
9322;SDS011;4700;48.822;9.270;2023-04-03T05:13:16;127.00;;;115.97;;
9322;SDS011;4700;48.822;9.270;2023-04-03T05:16:02;139.80;;;128.67;;
9322;SDS011;4700;48.822;9.270;2023-04-03T05:18:48;105.77;;;85.90;;
9322;SDS011;4700;48.822;9.270;2023-04-03T05:21:34;112.60;;;91.50;;
9322;SDS011;4700;48.822;9.270;2023-04-03T05:24:19;120.67;;;82.27;;
9322;SDS011;4700;48.822;9.270;2023-04-03T05:27:07;103.93;;;76.97;;
9322;SDS011;4700;48.822;9.270;2023-04-03T05:29:53;124.93;;;82.70;;
9322;SDS011;4700;48.822;9.270;2023-04-03T05:32:39;123.50;;;79.57;;
9322;SDS011;4700;48.822;9.270;2023-04-03T05:35:25;130.80;;;76.70;;
9322;SDS011;4700;48.822;9.270;2023-04-03T05:38:11;145.82;;;79.32;;
9322;SDS011;4700;48.822;9.270;2023-04-03T05:41:01;142.40;;;75.30;;
9322;SDS011;4700;48.822;9.270;2023-04-03T05:43:50;149.83;;;75.53;;
9322;SDS011;4700;48.822;9.270;2023-04-03T05:46:36;161.67;;;79.30;;
9322;SDS011;4700;48.822;9.270;2023-04-03T05:49:22;154.55;;;73.88;;
9322;SDS011;4700;48.822;9.270;2023-04-03T05:52:10;151.50;;;73.90;;
9322;SDS011;4700;48.822;9.270;2023-04-03T05:55:06;166.25;;;79.00;;
9322;SDS011;4700;48.822;9.270;2023-04-03T05:57:54;164.07;;;76.43;;
9322;SDS011;4700;48.822;9.270;2023-04-03T06:00:41;162.20;;;75.68;;
9322;SDS011;4700;48.822;9.270;2023-04-03T06:03:27;167.90;;;78.78;;
9322;SDS011;4700;48.822;9.270;2023-04-03T06:06:14;166.43;;;77.82;;
9322;SDS011;4700;48.822;9.270;2023-04-03T06:09:00;175.20;;;80.97;;
9322;SDS011;4700;48.822;9.270;2023-04-03T06:11:46;180.45;;;80.78;;
9322;SDS011;4700;48.822;9.270;2023-04-03T06:14:32;186.25;;;86.35;;
9322;SDS011;4700;48.822;9.270;2023-04-03T06:17:19;195.32;;;93.60;;
9322;SDS011;4700;48.822;9.270;2023-04-03T06:20:05;189.43;;;91.13;;
9322;SDS011;4700;48.822;9.270;2023-04-03T06:22:51;197.13;;;86.53;;
9322;SDS011;4700;48.822;9.270;2023-04-03T06:25:38;194.75;;;87.75;;
9322;SDS011;4700;48.822;9.270;2023-04-03T06:28:24;207.65;;;95.78;;
9322;SDS011;4700;48.822;9.270;2023-04-03T06:31:10;210.63;;;95.82;;
9322;SDS011;4700;48.822;9.270;2023-04-03T06:33:57;220.80;;;97.75;;
9322;SDS011;4700;48.822;9.270;2023-04-03T06:36:44;215.68;;;91.95;;
9322;SDS011;4700;48.822;9.270;2023-04-03T06:39:30;229.30;;;99.82;;
9322;SDS011;4700;48.822;9.270;2023-04-03T06:42:16;238.23;;;105.50;;
9322;SDS011;4700;48.822;9.270;2023-04-03T06:45:03;236.30;;;98.93;;
9322;SDS011;4700;48.822;9.270;2023-04-03T06:47:53;233.77;;;103.13;;
9322;SDS011;4700;48.822;9.270;2023-04-03T06:50:40;226.75;;;102.18;;
9322;SDS011;4700;48.822;9.270;2023-04-03T06:53:26;224.47;;;97.60;;
9322;SDS011;4700;48.822;9.270;2023-04-03T06:56:12;222.55;;;100.45;;
9322;SDS011;4700;48.822;9.270;2023-04-03T06:58:59;219.63;;;100.53;;
9322;SDS011;4700;48.822;9.270;2023-04-03T07:01:45;252.23;;;106.73;;
9322;SDS011;4700;48.822;9.270;2023-04-03T07:04:33;223.43;;;96.35;;
9322;SDS011;4700;48.822;9.270;2023-04-03T07:07:21;233.87;;;103.37;;
9322;SDS011;4700;48.822;9.270;2023-04-03T07:10:08;224.83;;;104.80;;
9322;SDS011;4700;48.822;9.270;2023-04-03T07:12:54;239.37;;;112.73;;
9322;SDS011;4700;48.822;9.270;2023-04-03T07:15:42;226.38;;;106.65;;
9322;SDS011;4700;48.822;9.270;2023-04-03T07:18:29;218.43;;;100.17;;
9322;SDS011;4700;48.822;9.270;2023-04-03T07:21:15;228.57;;;107.80;;
9322;SDS011;4700;48.822;9.270;2023-04-03T07:24:03;222.37;;;102.60;;
9322;SDS011;4700;48.822;9.270;2023-04-03T07:26:49;223.03;;;104.10;;
9322;SDS011;4700;48.822;9.270;2023-04-03T07:29:35;231.53;;;106.23;;
9322;SDS011;4700;48.822;9.270;2023-04-03T07:32:21;225.10;;;105.73;;
9322;SDS011;4700;48.822;9.270;2023-04-03T07:35:07;222.63;;;105.00;;
9322;SDS011;4700;48.822;9.270;2023-04-03T07:37:57;225.57;;;103.57;;
9322;SDS011;4700;48.822;9.270;2023-04-03T07:40:48;220.20;;;106.13;;
9322;SDS011;4700;48.822;9.270;2023-04-03T07:43:36;237.33;;;116.07;;
9322;SDS011;4700;48.822;9.270;2023-04-03T07:46:22;255.57;;;121.60;;
9322;SDS011;4700;48.822;9.270;2023-04-03T07:49:08;248.53;;;121.60;;
9322;SDS011;4700;48.822;9.270;2023-04-03T07:51:55;223.60;;;101.03;;
9322;SDS011;4700;48.822;9.270;2023-04-03T07:54:42;246.90;;;117.83;;
9322;SDS011;4700;48.822;9.270;2023-04-03T07:57:31;227.47;;;105.43;;
9322;SDS011;4700;48.822;9.270;2023-04-03T08:00:21;228.77;;;107.30;;
9322;SDS011;4700;48.822;9.270;2023-04-03T08:03:09;229.03;;;105.67;;
9322;SDS011;4700;48.822;9.270;2023-04-03T08:06:00;226.90;;;102.73;;
9322;SDS011;4700;48.822;9.270;2023-04-03T08:08:48;205.97;;;95.70;;
9322;SDS011;4700;48.822;9.270;2023-04-03T08:11:34;196.20;;;99.60;;
9322;SDS011;4700;48.822;9.270;2023-04-03T08:14:22;167.13;;;86.17;;
9322;SDS011;4700;48.822;9.270;2023-04-03T08:17:08;161.90;;;88.93;;
9322;SDS011;4700;48.822;9.270;2023-04-03T08:19:55;173.90;;;95.70;;
9322;SDS011;4700;48.822;9.270;2023-04-03T08:22:44;177.77;;;97.07;;
9322;SDS011;4700;48.822;9.270;2023-04-03T08:25:30;154.03;;;87.73;;
9322;SDS011;4700;48.822;9.270;2023-04-03T08:28:16;150.37;;;90.13;;
9322;SDS011;4700;48.822;9.270;2023-04-03T08:31:04;130.10;;;80.73;;
9322;SDS011;4700;48.822;9.270;2023-04-03T08:33:51;139.77;;;90.10;;
9322;SDS011;4700;48.822;9.270;2023-04-03T08:36:37;142.13;;;94.30;;
9322;SDS011;4700;48.822;9.270;2023-04-03T08:39:24;133.60;;;88.33;;
9322;SDS011;4700;48.822;9.270;2023-04-03T08:42:13;124.90;;;82.23;;
9322;SDS011;4700;48.822;9.270;2023-04-03T08:45:05;140.23;;;90.93;;
9322;SDS011;4700;48.822;9.270;2023-04-03T08:47:59;132.73;;;87.13;;
9322;SDS011;4700;48.822;9.270;2023-04-03T08:50:53;131.73;;;81.63;;
9322;SDS011;4700;48.822;9.270;2023-04-03T08:53:43;116.03;;;77.00;;
9322;SDS011;4700;48.822;9.270;2023-04-03T08:56:34;133.60;;;87.43;;
9322;SDS011;4700;48.822;9.270;2023-04-03T08:59:23;124.23;;;92.47;;
9322;SDS011;4700;48.822;9.270;2023-04-03T09:02:17;140.57;;;102.23;;
9322;SDS011;4700;48.822;9.270;2023-04-03T09:05:13;118.83;;;87.30;;
9322;SDS011;4700;48.822;9.270;2023-04-03T09:08:03;128.93;;;114.97;;
9322;SDS011;4700;48.822;9.270;2023-04-03T09:10:57;103.50;;;79.60;;
9322;SDS011;4700;48.822;9.270;2023-04-03T09:13:52;109.13;;;93.50;;
9322;SDS011;4700;48.822;9.270;2023-04-03T09:16:43;103.90;;;92.60;;
9322;SDS011;4700;48.822;9.270;2023-04-03T09:19:35;119.40;;;107.67;;
9322;SDS011;4700;48.822;9.270;2023-04-03T09:22:28;135.13;;;106.20;;
9322;SDS011;4700;48.822;9.270;2023-04-03T09:25:18;124.17;;;111.63;;
9322;SDS011;4700;48.822;9.270;2023-04-03T09:28:09;117.53;;;104.50;;
9322;SDS011;4700;48.822;9.270;2023-04-03T09:30:56;117.77;;;105.27;;
9322;SDS011;4700;48.822;9.270;2023-04-03T09:33:41;109.83;;;95.37;;
9322;SDS011;4700;48.822;9.270;2023-04-03T09:36:40;104.47;;;90.83;;
9322;SDS011;4700;48.822;9.270;2023-04-03T09:39:28;108.43;;;90.53;;
9322;SDS011;4700;48.822;9.270;2023-04-03T09:42:15;138.67;;;127.63;;
9322;SDS011;4700;48.822;9.270;2023-04-03T09:45:04;137.20;;;123.13;;
9322;SDS011;4700;48.822;9.270;2023-04-03T09:48:08;118.90;;;105.10;;
9322;SDS011;4700;48.822;9.270;2023-04-03T09:51:04;113.43;;;98.50;;
9322;SDS011;4700;48.822;9.270;2023-04-03T09:53:49;120.33;;;108.00;;
9322;SDS011;4700;48.822;9.270;2023-04-03T09:56:37;117.33;;;105.47;;
9322;SDS011;4700;48.822;9.270;2023-04-03T09:59:23;116.00;;;104.27;;
9322;SDS011;4700;48.822;9.270;2023-04-03T10:02:20;127.57;;;115.87;;
9322;SDS011;4700;48.822;9.270;2023-04-03T10:05:28;132.47;;;119.50;;
9322;SDS011;4700;48.822;9.270;2023-04-03T10:08:20;123.83;;;110.80;;
9322;SDS011;4700;48.822;9.270;2023-04-03T10:11:12;117.60;;;105.13;;
9322;SDS011;4700;48.822;9.270;2023-04-03T10:14:01;123.00;;;107.67;;
9322;SDS011;4700;48.822;9.270;2023-04-03T10:16:51;108.80;;;95.53;;
9322;SDS011;4700;48.822;9.270;2023-04-03T10:19:44;113.67;;;101.80;;
9322;SDS011;4700;48.822;9.270;2023-04-03T10:22:36;101.03;;;90.50;;
9322;SDS011;4700;48.822;9.270;2023-04-03T10:25:30;120.67;;;107.47;;
9322;SDS011;4700;48.822;9.270;2023-04-03T10:28:23;112.53;;;88.20;;
9322;SDS011;4700;48.822;9.270;2023-04-03T10:31:18;111.13;;;88.63;;
9322;SDS011;4700;48.822;9.270;2023-04-03T10:34:10;105.13;;;89.03;;
9322;SDS011;4700;48.822;9.270;2023-04-03T10:37:06;109.63;;;97.07;;
9322;SDS011;4700;48.822;9.270;2023-04-03T10:40:05;102.80;;;88.03;;
9322;SDS011;4700;48.822;9.270;2023-04-03T10:43:02;91.70;;;81.37;;
9322;SDS011;4700;48.822;9.270;2023-04-03T10:45:57;94.63;;;83.80;;
9322;SDS011;4700;48.822;9.270;2023-04-03T10:49:01;115.87;;;103.30;;
9322;SDS011;4700;48.822;9.270;2023-04-03T10:51:59;110.83;;;96.80;;
9322;SDS011;4700;48.822;9.270;2023-04-03T10:54:55;101.50;;;90.00;;
9322;SDS011;4700;48.822;9.270;2023-04-03T10:57:45;103.07;;;91.80;;
9322;SDS011;4700;48.822;9.270;2023-04-03T11:00:36;111.47;;;99.20;;
9322;SDS011;4700;48.822;9.270;2023-04-03T11:03:27;98.27;;;87.63;;
9322;SDS011;4700;48.822;9.270;2023-04-03T11:06:19;109.80;;;92.10;;
9322;SDS011;4700;48.822;9.270;2023-04-03T11:09:11;96.33;;;85.10;;
9322;SDS011;4700;48.822;9.270;2023-04-03T11:12:05;112.23;;;100.33;;
9322;SDS011;4700;48.822;9.270;2023-04-03T11:14:56;127.83;;;115.80;;
9322;SDS011;4700;48.822;9.270;2023-04-03T11:17:43;111.73;;;100.20;;
9322;SDS011;4700;48.822;9.270;2023-04-03T11:20:34;120.87;;;108.73;;
9322;SDS011;4700;48.822;9.270;2023-04-03T11:23:23;100.10;;;89.60;;
9322;SDS011;4700;48.822;9.270;2023-04-03T11:26:15;99.70;;;88.60;;
9322;SDS011;4700;48.822;9.270;2023-04-03T11:29:03;119.30;;;107.30;;
9322;SDS011;4700;48.822;9.270;2023-04-03T11:32:05;95.40;;;84.50;;
9322;SDS011;4700;48.822;9.270;2023-04-03T11:34:58;122.50;;;109.50;;
9322;SDS011;4700;48.822;9.270;2023-04-03T11:37:47;98.87;;;88.10;;
9322;SDS011;4700;48.822;9.270;2023-04-03T11:40:37;88.07;;;78.33;;
9322;SDS011;4700;48.822;9.270;2023-04-03T11:43:25;112.97;;;101.47;;
9322;SDS011;4700;48.822;9.270;2023-04-03T11:46:14;124.37;;;111.10;;
9322;SDS011;4700;48.822;9.270;2023-04-03T11:49:08;131.03;;;120.03;;
9322;SDS011;4700;48.822;9.270;2023-04-03T11:53:01;121.40;;;108.67;;
9322;SDS011;4700;48.822;9.270;2023-04-03T11:56:30;131.73;;;107.60;;
9322;SDS011;4700;48.822;9.270;2023-04-03T11:59:26;129.63;;;109.90;;
9322;SDS011;4700;48.822;9.270;2023-04-03T12:05:34;105.83;;;94.57;;
9322;SDS011;4700;48.822;9.270;2023-04-03T12:08:26;113.63;;;102.03;;
9322;SDS011;4700;48.822;9.270;2023-04-03T12:11:23;117.27;;;105.73;;
9322;SDS011;4700;48.822;9.270;2023-04-03T12:14:22;121.17;;;109.17;;
9322;SDS011;4700;48.822;9.270;2023-04-03T12:17:19;126.70;;;113.13;;
9322;SDS011;4700;48.822;9.270;2023-04-03T12:23:35;112.70;;;100.40;;
9322;SDS011;4700;48.822;9.270;2023-04-03T12:26:44;106.57;;;95.57;;
9322;SDS011;4700;48.822;9.270;2023-04-03T12:29:38;112.83;;;101.67;;
9322;SDS011;4700;48.822;9.270;2023-04-03T12:35:55;87.47;;;78.37;;
9322;SDS011;4700;48.822;9.270;2023-04-03T12:39:02;111.00;;;99.67;;
9322;SDS011;4700;48.822;9.270;2023-04-03T12:42:05;122.43;;;109.77;;
9322;SDS011;4700;48.822;9.270;2023-04-03T12:45:14;109.50;;;98.07;;
9322;SDS011;4700;48.822;9.270;2023-04-03T12:48:08;114.43;;;103.23;;
9322;SDS011;4700;48.822;9.270;2023-04-03T12:51:03;107.13;;;87.17;;
9322;SDS011;4700;48.822;9.270;2023-04-03T12:53:57;105.57;;;94.80;;
9322;SDS011;4700;48.822;9.270;2023-04-03T12:56:51;111.30;;;100.47;;
9322;SDS011;4700;48.822;9.270;2023-04-03T12:59:59;133.87;;;121.90;;
9322;SDS011;4700;48.822;9.270;2023-04-03T13:03:17;107.33;;;93.13;;
9322;SDS011;4700;48.822;9.270;2023-04-03T13:06:10;101.87;;;88.10;;
9322;SDS011;4700;48.822;9.270;2023-04-03T13:09:05;106.03;;;94.57;;
9322;SDS011;4700;48.822;9.270;2023-04-03T13:12:09;112.20;;;100.63;;
9322;SDS011;4700;48.822;9.270;2023-04-03T13:15:11;109.43;;;97.57;;
9322;SDS011;4700;48.822;9.270;2023-04-03T13:18:01;95.83;;;85.83;;
9322;SDS011;4700;48.822;9.270;2023-04-03T13:20:47;88.43;;;79.53;;
9322;SDS011;4700;48.822;9.270;2023-04-03T13:23:35;92.47;;;83.57;;
9322;SDS011;4700;48.822;9.270;2023-04-03T13:26:28;107.03;;;96.53;;
9322;SDS011;4700;48.822;9.270;2023-04-03T13:29:21;116.10;;;104.80;;
9322;SDS011;4700;48.822;9.270;2023-04-03T13:32:16;105.83;;;96.00;;
9322;SDS011;4700;48.822;9.270;2023-04-03T13:38:23;143.97;;;132.37;;
9322;SDS011;4700;48.822;9.270;2023-04-03T13:41:22;142.50;;;132.93;;
9322;SDS011;4700;48.822;9.270;2023-04-03T13:44:15;164.17;;;148.47;;
9322;SDS011;4700;48.822;9.270;2023-04-03T13:47:18;167.13;;;155.83;;
9322;SDS011;4700;48.822;9.270;2023-04-03T13:50:14;141.73;;;130.63;;
9322;SDS011;4700;48.822;9.270;2023-04-03T13:53:03;126.83;;;117.10;;
9322;SDS011;4700;48.822;9.270;2023-04-03T13:56:06;116.00;;;107.77;;
9322;SDS011;4700;48.822;9.270;2023-04-03T13:59:18;134.70;;;124.67;;
9322;SDS011;4700;48.822;9.270;2023-04-03T14:02:11;133.10;;;123.70;;
9322;SDS011;4700;48.822;9.270;2023-04-03T14:05:07;125.13;;;116.13;;
9322;SDS011;4700;48.822;9.270;2023-04-03T14:07:54;124.00;;;114.53;;
9322;SDS011;4700;48.822;9.270;2023-04-03T14:10:40;99.90;;;94.23;;
9322;SDS011;4700;48.822;9.270;2023-04-03T14:13:29;89.60;;;83.83;;
9322;SDS011;4700;48.822;9.270;2023-04-03T14:16:17;99.23;;;93.40;;
9322;SDS011;4700;48.822;9.270;2023-04-03T14:19:09;108.50;;;101.83;;
9322;SDS011;4700;48.822;9.270;2023-04-03T14:22:11;103.57;;;97.13;;
9322;SDS011;4700;48.822;9.270;2023-04-03T14:25:02;83.10;;;78.30;;
9322;SDS011;4700;48.822;9.270;2023-04-03T14:27:49;75.67;;;71.33;;
9322;SDS011;4700;48.822;9.270;2023-04-03T14:30:36;72.60;;;68.03;;
9322;SDS011;4700;48.822;9.270;2023-04-03T14:33:24;90.97;;;85.83;;
9322;SDS011;4700;48.822;9.270;2023-04-03T14:36:15;114.13;;;106.40;;
9322;SDS011;4700;48.822;9.270;2023-04-03T14:39:05;104.57;;;98.33;;
9322;SDS011;4700;48.822;9.270;2023-04-03T14:41:52;118.53;;;110.97;;
9322;SDS011;4700;48.822;9.270;2023-04-03T14:44:38;120.77;;;113.43;;
9322;SDS011;4700;48.822;9.270;2023-04-03T14:47:25;114.60;;;107.47;;
9322;SDS011;4700;48.822;9.270;2023-04-03T14:50:14;130.60;;;119.97;;
9322;SDS011;4700;48.822;9.270;2023-04-03T14:53:04;108.37;;;100.80;;
9322;SDS011;4700;48.822;9.270;2023-04-03T14:55:52;115.47;;;108.07;;
9322;SDS011;4700;48.822;9.270;2023-04-03T14:58:38;95.30;;;89.30;;
9322;SDS011;4700;48.822;9.270;2023-04-03T15:01:24;87.93;;;83.03;;
9322;SDS011;4700;48.822;9.270;2023-04-03T15:04:13;104.33;;;96.73;;
9322;SDS011;4700;48.822;9.270;2023-04-03T15:06:59;91.73;;;86.53;;
9322;SDS011;4700;48.822;9.270;2023-04-03T15:09:45;102.30;;;95.83;;
9322;SDS011;4700;48.822;9.270;2023-04-03T15:12:32;103.27;;;95.97;;
9322;SDS011;4700;48.822;9.270;2023-04-03T15:15:18;111.63;;;105.37;;
9322;SDS011;4700;48.822;9.270;2023-04-03T15:18:05;105.13;;;98.97;;
9322;SDS011;4700;48.822;9.270;2023-04-03T15:20:51;127.70;;;119.70;;
9322;SDS011;4700;48.822;9.270;2023-04-03T15:23:38;120.43;;;111.13;;
9322;SDS011;4700;48.822;9.270;2023-04-03T15:26:24;138.40;;;130.23;;
9322;SDS011;4700;48.822;9.270;2023-04-03T15:29:12;145.37;;;136.03;;
9322;SDS011;4700;48.822;9.270;2023-04-03T15:31:58;138.67;;;129.40;;
9322;SDS011;4700;48.822;9.270;2023-04-03T15:34:49;143.43;;;130.97;;
9322;SDS011;4700;48.822;9.270;2023-04-03T15:37:39;127.73;;;114.87;;
9322;SDS011;4700;48.822;9.270;2023-04-03T15:40:25;127.73;;;111.13;;
9322;SDS011;4700;48.822;9.270;2023-04-03T15:43:11;125.67;;;97.03;;
9322;SDS011;4700;48.822;9.270;2023-04-03T15:46:00;128.37;;;96.80;;
9322;SDS011;4700;48.822;9.270;2023-04-03T15:48:48;146.13;;;100.57;;
9322;SDS011;4700;48.822;9.270;2023-04-03T15:51:34;142.80;;;94.23;;
9322;SDS011;4700;48.822;9.270;2023-04-03T15:54:21;135.83;;;98.63;;
9322;SDS011;4700;48.822;9.270;2023-04-03T15:57:08;117.17;;;93.77;;
9322;SDS011;4700;48.822;9.270;2023-04-03T15:59:56;127.53;;;88.80;;
9322;SDS011;4700;48.822;9.270;2023-04-03T16:02:44;132.70;;;81.83;;
9322;SDS011;4700;48.822;9.270;2023-04-03T16:05:31;146.90;;;83.13;;
9322;SDS011;4700;48.822;9.270;2023-04-03T16:08:19;171.63;;;89.23;;
9322;SDS011;4700;48.822;9.270;2023-04-03T16:11:05;168.93;;;86.03;;
9322;SDS011;4700;48.822;9.270;2023-04-03T16:13:51;177.63;;;84.20;;
9322;SDS011;4700;48.822;9.270;2023-04-03T16:16:37;182.13;;;85.83;;
9322;SDS011;4700;48.822;9.270;2023-04-03T16:19:25;201.07;;;94.33;;
9322;SDS011;4700;48.822;9.270;2023-04-03T16:22:11;217.77;;;101.50;;
9322;SDS011;4700;48.822;9.270;2023-04-03T16:24:57;211.03;;;102.03;;
9322;SDS011;4700;48.822;9.270;2023-04-03T16:27:43;202.07;;;97.13;;
9322;SDS011;4700;48.822;9.270;2023-04-03T16:30:29;214.83;;;107.77;;
9322;SDS011;4700;48.822;9.270;2023-04-03T16:33:15;204.33;;;101.17;;
9322;SDS011;4700;48.822;9.270;2023-04-03T16:36:02;194.37;;;95.17;;
9322;SDS011;4700;48.822;9.270;2023-04-03T16:38:38;196.73;;;94.13;;
9322;SDS011;4700;48.822;9.270;2023-04-03T16:41:23;204.83;;;96.37;;
9322;SDS011;4700;48.822;9.270;2023-04-03T16:44:09;209.43;;;99.30;;
9322;SDS011;4700;48.822;9.270;2023-04-03T16:46:56;216.40;;;98.60;;
9322;SDS011;4700;48.822;9.270;2023-04-03T16:49:43;221.77;;;102.23;;
9322;SDS011;4700;48.822;9.270;2023-04-03T16:52:30;219.47;;;98.90;;
9322;SDS011;4700;48.822;9.270;2023-04-03T16:55:16;234.53;;;104.90;;
9322;SDS011;4700;48.822;9.270;2023-04-03T16:58:02;224.60;;;100.80;;
9322;SDS011;4700;48.822;9.270;2023-04-03T17:00:48;236.77;;;109.37;;
9322;SDS011;4700;48.822;9.270;2023-04-03T17:03:34;225.67;;;102.67;;
9322;SDS011;4700;48.822;9.270;2023-04-03T17:06:20;228.87;;;104.83;;
9322;SDS011;4700;48.822;9.270;2023-04-03T17:09:08;236.93;;;108.23;;
9322;SDS011;4700;48.822;9.270;2023-04-03T17:11:55;246.53;;;113.70;;
9322;SDS011;4700;48.822;9.270;2023-04-03T17:14:41;237.80;;;108.37;;
9322;SDS011;4700;48.822;9.270;2023-04-03T17:17:30;245.47;;;110.03;;
9322;SDS011;4700;48.822;9.270;2023-04-03T17:20:16;237.43;;;106.07;;
9322;SDS011;4700;48.822;9.270;2023-04-03T17:23:02;240.83;;;109.23;;
9322;SDS011;4700;48.822;9.270;2023-04-03T17:25:50;240.20;;;107.23;;
9322;SDS011;4700;48.822;9.270;2023-04-03T17:28:39;244.30;;;105.17;;
9322;SDS011;4700;48.822;9.270;2023-04-03T17:31:25;210.93;;;94.83;;
9322;SDS011;4700;48.822;9.270;2023-04-03T17:34:12;182.87;;;86.23;;
9322;SDS011;4700;48.822;9.270;2023-04-03T17:36:58;174.33;;;80.83;;
9322;SDS011;4700;48.822;9.270;2023-04-03T17:39:44;161.30;;;80.53;;
9322;SDS011;4700;48.822;9.270;2023-04-03T17:42:31;157.93;;;79.93;;
9322;SDS011;4700;48.822;9.270;2023-04-03T17:45:17;163.50;;;80.80;;
9322;SDS011;4700;48.822;9.270;2023-04-03T17:48:03;159.00;;;79.93;;
9322;SDS011;4700;48.822;9.270;2023-04-03T17:50:49;156.43;;;79.37;;
9322;SDS011;4700;48.822;9.270;2023-04-03T17:53:35;168.40;;;80.63;;
9322;SDS011;4700;48.822;9.270;2023-04-03T17:56:22;171.20;;;81.63;;
9322;SDS011;4700;48.822;9.270;2023-04-03T17:59:11;151.90;;;76.13;;
9322;SDS011;4700;48.822;9.270;2023-04-03T18:01:57;149.97;;;75.07;;
9322;SDS011;4700;48.822;9.270;2023-04-03T18:04:43;137.00;;;73.13;;
9322;SDS011;4700;48.822;9.270;2023-04-03T18:07:29;135.80;;;72.30;;
9322;SDS011;4700;48.822;9.270;2023-04-03T18:10:15;131.90;;;71.83;;
9322;SDS011;4700;48.822;9.270;2023-04-03T18:13:02;120.40;;;69.40;;
9322;SDS011;4700;48.822;9.270;2023-04-03T18:15:50;121.00;;;69.70;;
9322;SDS011;4700;48.822;9.270;2023-04-03T18:18:36;113.17;;;66.67;;
9322;SDS011;4700;48.822;9.270;2023-04-03T18:21:23;108.73;;;67.23;;
9322;SDS011;4700;48.822;9.270;2023-04-03T18:24:10;109.47;;;67.67;;
9322;SDS011;4700;48.822;9.270;2023-04-03T18:26:58;103.10;;;65.97;;
9322;SDS011;4700;48.822;9.270;2023-04-03T18:29:47;109.07;;;67.67;;
9322;SDS011;4700;48.822;9.270;2023-04-03T18:32:38;107.70;;;67.70;;
9322;SDS011;4700;48.822;9.270;2023-04-03T18:43:00;85.57;;;63.80;;
9322;SDS011;4700;48.822;9.270;2023-04-03T18:48:18;98.80;;;66.70;;
9322;SDS011;4700;48.822;9.270;2023-04-03T19:09:17;77.70;;;60.27;;
9322;SDS011;4700;48.822;9.270;2023-04-03T19:14:36;90.20;;;62.67;;
9322;SDS011;4700;48.822;9.270;2023-04-03T19:17:25;86.13;;;59.63;;
9322;SDS011;4700;48.822;9.270;2023-04-03T19:35:30;148.47;;;98.53;;
9322;SDS011;4700;48.822;9.270;2023-04-03T19:45:55;83.47;;;64.37;;
9322;SDS011;4700;48.822;9.270;2023-04-03T19:48:46;102.43;;;76.13;;
9322;SDS011;4700;48.822;9.270;2023-04-03T19:56:48;121.23;;;81.27;;
9322;SDS011;4700;48.822;9.270;2023-04-03T20:15:02;95.80;;;70.13;;
9322;SDS011;4700;48.822;9.270;2023-04-03T20:41:10;147.77;;;94.22;;
9322;SDS011;4700;48.822;9.270;2023-04-03T21:24:34;122.72;;;63.38;;
9322;SDS011;4700;48.822;9.270;2023-04-03T22:16:10;108.63;;;61.95;;
9322;SDS011;4700;48.822;9.270;2023-04-03T23:10:38;124.18;;;64.78;;
9322;SDS011;4700;48.822;9.270;2023-04-03T23:13:29;129.85;;;63.35;;
9322;SDS011;4700;48.822;9.270;2023-04-03T23:16:16;134.52;;;65.97;;
9322;SDS011;4700;48.822;9.270;2023-04-03T23:26:51;130.88;;;64.53;;
9322;SDS011;4700;48.822;9.270;2023-04-03T23:34:43;132.80;;;67.07;;